Time,TemperatureF,DewpointF,PressureIn,WindDirection,WindDirectionDegrees,WindSpeedMPH,WindSpeedGustMPH,Humidity,HourlyPrecipIn,Conditions,Clouds,dailyrainin,SoftwareType,DateUTC
2013-03-05 00:02:00,23.0,21.0,-100.00,East,99,5.0,7.0,94,-99.99,,,-99.99,,2013-03-05 08:02:00,
2013-03-05 00:11:00,23.0,21.0,-100.00,East,99,5.0,7.0,94,-99.99,,,-99.99,,2013-03-05 08:11:00,
2013-03-05 00:41:00,24.0,20.0,-100.00,SSW,195,1.0,4.0,85,-99.99,,,-99.99,,2013-03-05 08:41:00,
2013-03-05 00:52:00,24.0,21.0,-100.00,SSE,157,0.0,2.0,87,-99.99,,,-99.99,,2013-03-05 08:52:00,
2013-03-05 01:01:00,23.0,20.0,-100.00,ENE,58,0.0,1.0,89,-99.99,,,-99.99,,2013-03-05 09:01:00,
2013-03-05 01:11:00,24.0,20.0,-100.00,North,-999,0.0,0.0,85,-99.99,,,-99.99,,2013-03-05 09:11:00,
2013-03-05 01:21:00,24.0,20.0,-100.00,South,171,1.0,3.0,85,-99.99,,,-99.99,,2013-03-05 09:21:00,
2013-03-05 01:31:00,24.0,19.0,-100.00,East,95,2.0,3.0,82,-99.99,,,-99.99,,2013-03-05 09:31:00,
2013-03-05 01:42:00,24.0,19.0,-100.00,East,95,2.0,3.0,82,-99.99,,,-99.99,,2013-03-05 09:42:00,
2013-03-05 01:52:00,23.0,20.0,-100.00,SSE,148,0.0,3.0,87,-99.99,,,-99.99,,2013-03-05 09:52:00,
2013-03-05 02:01:00,23.0,21.0,-100.00,SSE,168,0.0,1.0,90,-99.99,,,-99.99,,2013-03-05 10:01:00,
2013-03-05 02:11:00,24.0,20.0,-100.00,ESE,106,0.0,3.0,83,-99.99,,,-99.99,,2013-03-05 10:11:00,
2013-03-05 02:21:00,23.0,19.0,-100.00,ESE,106,3.0,5.0,82,-99.99,,,-99.99,,2013-03-05 10:21:00,
2013-03-05 02:32:00,24.0,19.0,-100.00,SSE,151,2.0,5.0,81,-99.99,,,-99.99,,2013-03-05 10:32:00,
2013-03-05 02:42:00,26.0,20.0,-100.00,SSE,158,4.0,8.0,76,-99.99,,,-99.99,,2013-03-05 10:42:00,
2013-03-05 02:51:00,23.0,19.0,-100.00,SSW,208,2.0,7.0,85,-99.99,,,-99.99,,2013-03-05 10:51:00,
2013-03-05 03:01:00,23.0,20.0,-100.00,SSE,167,1.0,3.0,86,-99.99,,,-99.99,,2013-03-05 11:01:00,
2013-03-05 03:11:00,25.0,20.0,-100.00,South,175,2.0,4.0,81,-99.99,,,-99.99,,2013-03-05 11:11:00,
2013-03-05 03:22:00,24.0,18.0,-100.00,SE,133,3.0,5.0,78,-99.99,,,-99.99,,2013-03-05 11:22:00,
2013-03-05 03:32:00,24.0,18.0,-100.00,ESE,107,6.0,8.0,77,-99.99,,,-99.99,,2013-03-05 11:32:00,
2013-03-05 03:42:00,25.0,19.0,-100.00,South,188,3.0,8.0,76,-99.99,,,-99.99,,2013-03-05 11:42:00,
2013-03-05 03:52:00,24.0,18.0,-100.00,SSE,160,0.0,2.0,80,-99.99,,,-99.99,,2013-03-05 11:52:00,
2013-03-05 04:02:00,23.0,18.0,-100.00,NW,322,1.0,3.0,80,-99.99,,,-99.99,,2013-03-05 12:02:00,
2013-03-05 04:11:00,23.0,18.0,-100.00,NW,322,1.0,3.0,80,-99.99,,,-99.99,,2013-03-05 12:11:00,
2013-03-05 04:22:00,24.0,18.0,-100.00,SE,136,2.0,3.0,80,-99.99,,,-99.99,,2013-03-05 12:22:00,
2013-03-05 04:32:00,24.0,18.0,-100.00,SSE,162,4.0,7.0,77,-99.99,,,-99.99,,2013-03-05 12:32:00,
2013-03-05 04:42:00,24.0,17.0,-100.00,SSE,158,2.0,5.0,76,-99.99,,,-99.99,,2013-03-05 12:42:00,
2013-03-05 04:52:00,25.0,18.0,-100.00,SSE,167,3.0,6.0,73,-99.99,,,-99.99,,2013-03-05 12:52:00,
2013-03-05 05:02:00,24.0,18.0,-100.00,SE,134,6.0,9.0,78,-99.99,,,-99.99,,2013-03-05 13:02:00,
2013-03-05 05:11:00,27.0,18.0,-100.00,ESE,120,11.0,14.0,68,-99.99,,,-99.99,,2013-03-05 13:11:00,
2013-03-05 05:21:00,30.0,19.0,-100.00,SE,126,11.0,14.0,65,-99.99,,,-99.99,,2013-03-05 13:21:00,
2013-03-05 05:32:00,30.0,19.0,-100.00,SE,127,11.0,15.0,63,-99.99,,,-99.99,,2013-03-05 13:32:00,
2013-03-05 05:42:00,30.0,19.0,-100.00,SE,127,11.0,15.0,63,-99.99,,,-99.99,,2013-03-05 13:42:00,
2013-03-05 05:52:00,26.0,19.0,-100.00,SE,124,8.0,11.0,73,-99.99,,,-99.99,,2013-03-05 13:52:00,
2013-03-05 06:02:00,26.0,18.0,-100.00,SE,134,8.0,10.0,72,-99.99,,,-99.99,,2013-03-05 14:02:00,
2013-03-05 06:11:00,28.0,18.0,-100.00,SSE,147,10.0,13.0,66,-99.99,,,-99.99,,2013-03-05 14:11:00,
2013-03-05 06:21:00,28.0,18.0,-100.00,SSE,148,9.0,13.0,66,-99.99,,,-99.99,,2013-03-05 14:21:00,
2013-03-05 06:31:00,29.0,18.0,-100.00,SE,133,10.0,14.0,64,-99.99,,,-99.99,,2013-03-05 14:31:00,
2013-03-05 06:42:00,28.0,18.0,-100.00,SE,124,9.0,13.0,64,-99.99,,,-99.99,,2013-03-05 14:42:00,
2013-03-05 06:52:00,27.0,18.0,-100.00,SE,130,9.0,11.0,68,-99.99,,,-99.99,,2013-03-05 14:52:00,
2013-03-05 07:01:00,27.0,18.0,-100.00,SE,131,10.0,13.0,68,-99.99,,,-99.99,,2013-03-05 15:01:00,
2013-03-05 07:11:00,27.0,18.0,-100.00,SE,131,10.0,13.0,68,-99.99,,,-99.99,,2013-03-05 15:11:00,
2013-03-05 07:21:00,30.0,20.0,-100.00,SE,136,10.0,13.0,64,-99.99,,,-99.99,,2013-03-05 15:21:00,
2013-03-05 07:32:00,32.0,20.0,-100.00,SE,133,10.0,14.0,63,-99.99,,,-99.99,,2013-03-05 15:32:00,
2013-03-05 07:42:00,34.0,21.0,-100.00,SE,138,11.0,14.0,58,-99.99,,,-99.99,,2013-03-05 15:42:00,
2013-03-05 07:51:00,36.0,19.0,-100.00,SE,141,8.0,11.0,51,-99.99,,,-99.99,,2013-03-05 15:51:00,
2013-03-05 08:01:00,37.0,21.0,-100.00,SE,143,6.0,9.0,53,-99.99,,,-99.99,,2013-03-05 16:01:00,
2013-03-05 08:11:00,36.0,18.0,-100.00,SSE,150,6.0,9.0,48,-99.99,,,-99.99,,2013-03-05 16:11:00,
2013-03-05 08:21:00,36.0,18.0,-100.00,SSE,150,6.0,9.0,48,-99.99,,,-99.99,,2013-03-05 16:21:00,
2013-03-05 08:32:00,37.0,20.0,-100.00,SSE,152,6.0,10.0,49,-99.99,,,-99.99,,2013-03-05 16:32:00,
2013-03-05 08:41:00,39.0,21.0,-100.00,SSE,147,9.0,12.0,48,-99.99,,,-99.99,,2013-03-05 16:41:00,
2013-03-05 08:52:00,40.0,19.0,-100.00,SE,144,11.0,14.0,43,-99.99,,,-99.99,,2013-03-05 16:52:00,
2013-03-05 09:01:00,40.0,20.0,-100.00,SE,145,11.0,14.0,44,-99.99,,,-99.99,,2013-03-05 17:01:00,
2013-03-05 09:11:00,41.0,20.0,-100.00,SSE,150,11.0,15.0,42,-99.99,,,-99.99,,2013-03-05 17:11:00,
2013-03-05 09:21:00,42.0,19.0,-100.00,SE,137,10.0,14.0,39,-99.99,,,-99.99,,2013-03-05 17:21:00,
2013-03-05 09:32:00,42.0,19.0,-100.00,SE,137,10.0,14.0,39,-99.99,,,-99.99,,2013-03-05 17:32:00,
2013-03-05 09:41:00,42.0,21.0,-100.00,SSE,150,10.0,16.0,42,-99.99,,,-99.99,,2013-03-05 17:41:00,
2013-03-05 09:52:00,42.0,21.0,-100.00,SSE,150,10.0,16.0,42,-99.99,,,-99.99,,2013-03-05 17:52:00,
2013-03-05 10:11:00,44.0,20.0,-100.00,SSE,160,14.0,20.0,39,-99.99,,,-99.99,,2013-03-05 18:11:00,
2013-03-05 10:21:00,44.0,21.0,-100.00,SSE,167,15.0,21.0,40,-99.99,,,-99.99,,2013-03-05 18:21:00,
2013-03-05 10:32:00,45.0,20.0,-100.00,SSE,165,15.0,21.0,36,-99.99,,,-99.99,,2013-03-05 18:32:00,
2013-03-05 10:42:00,45.0,21.0,-100.00,SSE,168,15.0,21.0,38,-99.99,,,-99.99,,2013-03-05 18:42:00,
2013-03-05 10:52:00,45.0,18.0,-100.00,South,171,16.0,22.0,34,-99.99,,,-99.99,,2013-03-05 18:52:00,
2013-03-05 11:01:00,46.0,19.0,-100.00,South,174,17.0,22.0,34,-99.99,,,-99.99,,2013-03-05 19:01:00,
2013-03-05 11:11:00,47.0,20.0,-100.00,South,172,17.0,23.0,34,-99.99,,,-99.99,,2013-03-05 19:11:00,
2013-03-05 11:21:00,46.0,16.0,-100.00,South,176,18.0,24.0,30,-99.99,,,-99.99,,2013-03-05 19:21:00,
2013-03-05 11:32:00,46.0,16.0,-100.00,South,172,16.0,23.0,30,-99.99,,,-99.99,,2013-03-05 19:32:00,
2013-03-05 11:42:00,46.0,17.0,-100.00,South,172,17.0,26.0,31,-99.99,,,-99.99,,2013-03-05 19:42:00,
2013-03-05 11:51:00,47.0,20.0,-100.00,South,176,16.0,23.0,34,-99.99,,,-99.99,,2013-03-05 19:51:00,
2013-03-05 12:01:00,47.0,19.0,-100.00,South,172,17.0,23.0,32,-99.99,,,-99.99,,2013-03-05 20:01:00,
2013-03-05 12:11:00,47.0,19.0,-100.00,South,172,17.0,23.0,32,-99.99,,,-99.99,,2013-03-05 20:11:00,
2013-03-05 12:21:00,47.0,18.0,-100.00,SSE,162,18.0,24.0,31,-99.99,,,-99.99,,2013-03-05 20:21:00,
2013-03-05 12:32:00,47.0,18.0,-100.00,SSE,164,17.0,25.0,31,-99.99,,,-99.99,,2013-03-05 20:32:00,
2013-03-05 12:41:00,48.0,18.0,-100.00,South,172,19.0,25.0,30,-99.99,,,-99.99,,2013-03-05 20:41:00,
2013-03-05 12:52:00,48.0,18.0,-100.00,South,172,19.0,25.0,30,-99.99,,,-99.99,,2013-03-05 20:52:00,
2013-03-05 13:01:00,49.0,18.0,-100.00,SSE,158,18.0,25.0,29,-99.99,,,-99.99,,2013-03-05 21:01:00,
2013-03-05 13:11:00,49.0,17.0,-100.00,SSE,165,17.0,24.0,28,-99.99,,,-99.99,,2013-03-05 21:11:00,
2013-03-05 13:21:00,49.0,16.0,-100.00,South,171,17.0,26.0,27,-99.99,,,-99.99,,2013-03-05 21:21:00,
2013-03-05 13:31:00,49.0,18.0,-100.00,South,169,18.0,25.0,29,-99.99,,,-99.99,,2013-03-05 21:31:00,
2013-03-05 13:41:00,49.0,19.0,-100.00,South,169,19.0,26.0,30,-99.99,,,-99.99,,2013-03-05 21:41:00,
2013-03-05 13:52:00,49.0,18.0,-100.00,SSE,165,16.0,24.0,29,-99.99,,,-99.99,,2013-03-05 21:52:00,
2013-03-05 14:01:00,50.0,19.0,-100.00,South,169,18.0,26.0,29,-99.99,,,-99.99,,2013-03-05 22:01:00,
2013-03-05 14:11:00,50.0,21.0,-100.00,SSE,165,15.0,22.0,32,-99.99,,,-99.99,,2013-03-05 22:11:00,
2013-03-05 14:21:00,50.0,21.0,-100.00,SSE,165,15.0,22.0,32,-99.99,,,-99.99,,2013-03-05 22:21:00,
2013-03-05 14:32:00,50.0,19.0,-100.00,SSE,167,17.0,24.0,30,-99.99,,,-99.99,,2013-03-05 22:32:00,
2013-03-05 14:41:00,50.0,19.0,-100.00,SSE,164,15.0,22.0,29,-99.99,,,-99.99,,2013-03-05 22:41:00,
2013-03-05 14:52:00,50.0,21.0,-100.00,SSE,160,17.0,23.0,32,-99.99,,,-99.99,,2013-03-05 22:52:00,
2013-03-05 15:01:00,50.0,23.0,-100.00,SSE,161,15.0,24.0,34,-99.99,,,-99.99,,2013-03-05 23:01:00,
2013-03-05 15:11:00,50.0,21.0,-100.00,SSE,160,17.0,25.0,31,-99.99,,,-99.99,,2013-03-05 23:11:00,
2013-03-05 15:21:00,50.0,20.0,-100.00,SSE,165,17.0,27.0,30,-99.99,,,-99.99,,2013-03-05 23:21:00,
2013-03-05 15:32:00,50.0,19.0,-100.00,SSE,164,18.0,24.0,29,-99.99,,,-99.99,,2013-03-05 23:32:00,
2013-03-05 15:41:00,50.0,19.0,-100.00,SSE,162,19.0,25.0,29,-99.99,,,-99.99,,2013-03-05 23:41:00,
2013-03-05 15:52:00,50.0,19.0,-100.00,SSE,162,19.0,25.0,29,-99.99,,,-99.99,,2013-03-05 23:52:00,
2013-03-05 16:01:00,50.0,20.0,-100.00,SSE,162,21.0,30.0,31,-99.99,,,-99.99,,2013-03-06 00:01:00,
2013-03-05 16:11:00,50.0,19.0,-100.00,SSE,162,20.0,30.0,29,-99.99,,,-99.99,,2013-03-06 00:11:00,
2013-03-05 16:21:00,50.0,20.0,-100.00,SSE,164,21.0,28.0,31,-99.99,,,-99.99,,2013-03-06 00:21:00,
2013-03-05 16:32:00,50.0,19.0,-100.00,SSE,164,20.0,25.0,30,-99.99,,,-99.99,,2013-03-06 00:32:00,
2013-03-05 16:41:00,49.0,18.0,-100.00,SSE,164,20.0,27.0,29,-99.99,,,-99.99,,2013-03-06 00:41:00,
2013-03-05 16:51:00,49.0,18.0,-100.00,SSE,164,20.0,27.0,29,-99.99,,,-99.99,,2013-03-06 00:51:00,
2013-03-05 17:01:00,49.0,17.0,-100.00,SSE,165,17.0,24.0,28,-99.99,,,-99.99,,2013-03-06 01:01:00,
2013-03-05 17:11:00,49.0,17.0,-100.00,SSE,165,17.0,24.0,28,-99.99,,,-99.99,,2013-03-06 01:11:00,
2013-03-05 17:21:00,48.0,18.0,-100.00,South,172,18.0,25.0,30,-99.99,,,-99.99,,2013-03-06 01:21:00,
2013-03-05 17:31:00,48.0,18.0,-100.00,South,172,18.0,25.0,30,-99.99,,,-99.99,,2013-03-06 01:31:00,
2013-03-05 17:41:00,47.0,19.0,-100.00,South,171,14.0,20.0,33,-99.99,,,-99.99,,2013-03-06 01:41:00,
2013-03-05 17:51:00,45.0,20.0,-100.00,SSE,168,12.0,19.0,36,-99.99,,,-99.99,,2013-03-06 01:51:00,
2013-03-05 18:01:00,45.0,20.0,-100.00,SSE,168,12.0,19.0,36,-99.99,,,-99.99,,2013-03-06 02:01:00,
2013-03-05 18:21:00,40.0,23.0,-100.00,SE,133,10.0,13.0,51,-99.99,,,-99.99,,2013-03-06 02:21:00,
2013-03-05 18:31:00,40.0,23.0,-100.00,SE,133,10.0,13.0,51,-99.99,,,-99.99,,2013-03-06 02:31:00,
2013-03-05 18:41:00,40.0,22.0,-100.00,SE,134,10.0,15.0,49,-99.99,,,-99.99,,2013-03-06 02:41:00,
2013-03-05 18:52:00,39.0,23.0,-100.00,SE,130,11.0,15.0,52,-99.99,,,-99.99,,2013-03-06 02:52:00,
2013-03-05 19:01:00,39.0,22.0,-100.00,SE,124,11.0,15.0,49,-99.99,,,-99.99,,2013-03-06 03:01:00,
2013-03-05 19:11:00,39.0,22.0,-100.00,SE,124,11.0,15.0,49,-99.99,,,-99.99,,2013-03-06 03:11:00,
2013-03-05 19:21:00,39.0,22.0,-100.00,SE,136,9.0,13.0,50,-99.99,,,-99.99,,2013-03-06 03:21:00,
2013-03-05 19:31:00,38.0,23.0,-100.00,SE,140,8.0,12.0,55,-99.99,,,-99.99,,2013-03-06 03:31:00,
2013-03-05 19:40:00,39.0,22.0,-100.00,SE,137,10.0,19.0,49,-99.99,,,-99.99,,2013-03-06 03:40:00,
2013-03-05 19:41:00,38.0,22.0,-100.00,ESE,121,9.0,15.0,51,-99.99,,,-99.99,,2013-03-06 03:41:00,
2013-03-05 19:52:00,39.0,22.0,-100.00,ESE,116,11.0,15.0,50,-99.99,,,-99.99,,2013-03-06 03:52:00,
2013-03-05 20:01:00,38.0,23.0,-100.00,SE,124,9.0,13.0,54,-99.99,,,-99.99,,2013-03-06 04:01:00,
2013-03-05 20:11:00,37.0,23.0,-100.00,SE,127,8.0,13.0,55,-99.99,,,-99.99,,2013-03-06 04:11:00,
2013-03-05 20:21:00,39.0,22.0,-100.00,SE,137,10.0,19.0,49,-99.99,,,-99.99,,2013-03-06 04:21:00,
2013-03-05 20:32:00,39.0,22.0,-100.00,SE,137,10.0,19.0,49,-99.99,,,-99.99,,2013-03-06 04:32:00,
2013-03-05 21:01:00,37.0,23.0,-100.00,ESE,123,13.0,17.0,57,-99.99,,,-99.99,,2013-03-06 05:01:00,
2013-03-05 21:11:00,36.0,24.0,-100.00,SE,126,11.0,17.0,60,-99.99,,,-99.99,,2013-03-06 05:11:00,
2013-03-05 21:22:00,37.0,23.0,-100.00,SE,124,11.0,14.0,58,-99.99,,,-99.99,,2013-03-06 05:22:00,
2013-03-05 21:32:00,34.0,24.0,-100.00,ESE,123,8.0,13.0,66,-99.99,,,-99.99,,2013-03-06 05:32:00,
2013-03-05 21:42:00,35.0,24.0,-100.00,ESE,109,7.0,13.0,63,-99.99,,,-99.99,,2013-03-06 05:42:00,
2013-03-05 21:52:00,35.0,24.0,-100.00,ESE,109,7.0,10.0,63,-99.99,,,-99.99,,2013-03-06 05:52:00,
2013-03-05 22:01:00,36.0,23.0,-100.00,ESE,114,7.0,10.0,59,-99.99,,,-99.99,,2013-03-06 06:01:00,
2013-03-05 22:11:00,37.0,24.0,-100.00,ESE,106,8.0,12.0,58,-99.99,,,-99.99,,2013-03-06 06:11:00,
2013-03-05 22:22:00,36.0,24.0,-100.00,East,100,10.0,15.0,62,-99.99,,,-99.99,,2013-03-06 06:22:00,
2013-03-05 22:31:00,35.0,24.0,-100.00,East,93,11.0,14.0,64,-99.99,,,-99.99,,2013-03-06 06:31:00,
2013-03-05 22:41:00,34.0,25.0,-100.00,ESE,119,7.0,12.0,68,-99.99,,,-99.99,,2013-03-06 06:41:00,
2013-03-05 22:52:00,34.0,24.0,-100.00,ESE,106,9.0,13.0,66,-99.99,,,-99.99,,2013-03-06 06:52:00,
2013-03-05 23:01:00,35.0,24.0,-100.00,East,99,8.0,13.0,65,-99.99,,,-99.99,,2013-03-06 07:01:00,
2013-03-05 23:11:00,35.0,24.0,-100.00,East,99,8.0,13.0,65,-99.99,,,-99.99,,2013-03-06 07:11:00,
2013-03-05 23:22:00,33.0,25.0,-100.00,SE,136,7.0,11.0,71,-99.99,,,-99.99,,2013-03-06 07:22:00,
2013-03-05 23:31:00,34.0,25.0,-100.00,SE,141,9.0,15.0,68,-99.99,,,-99.99,,2013-03-06 07:31:00,
2013-03-05 23:42:00,35.0,25.0,-100.00,SSE,150,10.0,15.0,65,-99.99,,,-99.99,,2013-03-06 07:42:00,
2013-03-05 23:52:00,36.0,25.0,-100.00,SSE,154,12.0,17.0,63,-99.99,,,-99.99,,2013-03-06 07:52:00,